Terminal Aerodrome Forecast
Issued by NWS

Home | Current Version | Previous Version | Text Only | Print | Product List | Glossary On
Versions: 1 2 3 4 5 6 7 8 9 10 11 12 13 14 15 16 17 18 19 20 21 22 23 24 25 26 27 28 29 30 31 32 33 34 35 36
000
FTUS41 KCTP 231445 AAB
TAFAOO
TAF AMD
KAOO 231445Z 2315/2412 07012G20KT 4SM -RA BR OVC012
     FM231530 08013G20KT 3SM -RA BR OVC008
     FM231700 07012G22KT 1SM RA BR OVC004 WS020/09030KT
     FM232200 06012G22KT 1SM -RASN BR OVC003 WS020/07035KT
     FM240900 01010G20KT 2SM -SN BR OVC006=

USA.gov is the U.S. government's official web portal to all federal, state and local government web resources and services.